Terminal Aerodrome Forecast
Issued by NWS Los Angeles, CA

Home | Current Version | Previous Version | Text Only | Print | Product List | Glossary On
Versions: 1 2 3 4 5 6 7 8 9 10 11 12 13 14 15 16 17 18 19 20 21 22
000
FTUS46 KLOX 220500
TAFSMX
TAF
KSMX 220522Z 2206/2306 31007KT P6SM OVC014
     FM221100 VRB03KT 4SM BR OVC007
     FM221600 VRB04KT 6SM BR BKN010
     FM221800 31006KT P6SM SCT010
     FM222100 31015G20KT P6SM SKC
     FM230400 31008KT P6SM BKN010=

USA.gov is the U.S. government's official web portal to all federal, state and local government web resources and services.